x

Frying Pan Shoals, Nc Buoy (41013) Wave Buoy

5:50am - Thu 5th Mar 2015 All times are EST. -5 hours from GMT.

  • Sig Wave height 6.2ft
  • Swell Direction
  • Peak Period 7s
  • Average Period 5s
  • Wind
    20mph, 25mph gusts
  • Sea Temp 63°f
  • Air Temp 69°f
  • Sea Pressure 1016.1mb
  • Frying Pan Shoals, Nc Buoy
  • Frying Pan Shoals, Nc Buoy

More Historic Weather Station data

Upgrade to MSW Pro to gain access to the past 30 days of data for over 8000 Wavebouys and Weather Stations around the globe.

Join Pro

Comparision Forecast

View Surf forecast
   
Thu 03/05 5:50am 6ft 7s 5s 20 25 mph 1016.1mb 63f 69f
4:50am 6.5ft 8s 6s 20 22 mph 1016mb 63f 69f
3:50am 7ft 7s 6s 18 20 mph 1015.8mb 62f 68f
2:50am 6.5ft 7s 5s 18 22 mph 1016.1mb 62f 68f
1:50am 7.5ft 7s 6s 18 22 mph 1016.6mb 62f 68f
12:50am 6ft 7s 5s 20 25 mph 1016.5mb 62f 69f
Wed 03/04 11:50pm 5.5ft 7s 5s 18 20 mph 1016.7mb 62f 68f
10:50pm 5.5ft 6s 5s 18 22 mph 1016.9mb 62f 69f
9:50pm  -   -   -  18 20 mph 1017mb 63f 68f
8:50pm 5.5ft 7s 5s 20 25 mph 1016.6mb 63f 69f
7:50pm 5.5ft 7s 5s 20 25 mph 1016.4mb 63f 69f
6:50pm 5ft 7s 5s 20 25 mph 1016.6mb 63f 68f
5:50pm 5.5ft 6s 5s 18 22 mph 1016.5mb 63f 68f
4:50pm 5ft 6s 5s 18 20 mph 1016.8mb 62f 67f
3:50pm 5.5ft 6s 5s 18 22 mph 1017.2mb 62f 67f
2:50pm 5ft 7s 5s 20 25 mph 1017.5mb 62f 67f
1:50pm 5ft 6s 5s 18 20 mph 1018.4mb 62f 67f
12:50pm 5ft 6s 5s 16 20 mph 1018.8mb 62f 67f
11:50am 5ft 6s 6s 9 11 mph 1019.5mb 62f 66f
10:50am 5ft 7s 6s 7 9 mph 1020.1mb 62f 65f
9:50am 5ft 6s 6s 11
mph
1020.5mb 62f 66f
8:50am 5ft 7s 6s 11 13 mph 1020.8mb 62f 67f
7:50am 5ft 7s 6s 13 16 mph 1020.2mb 62f 67f
6:50am 5ft 7s 6s 11 13 mph 1019.8mb 62f 67f
5:50am 5ft 7s 6s 11
mph
1019.5mb 61f 66f
4:50am 4.5ft 7s 6s 2 4 mph 1019.4mb 61f 62f
3:50am 5ft 7s 6s 2 4 mph 1019.2mb 61f 60f
2:50am 5ft 7s 6s 4
mph
1019.4mb 61f 61f
1:50am 5ft 7s 5s 11
mph
1019.6mb 61f 66f
12:50am 5.5ft 6s 6s 9 11 mph 1020.1mb 61f 65f
Tue 03/03 11:50pm 5ft 6s 6s 9 11 mph 1020.8mb 61f 65f
10:50pm 5.5ft 6s 6s 11 13 mph 1021.1mb 61f 66f
9:50pm 5.5ft 6s 6s 13 16 mph 1021mb 61f 65f
8:50pm 5.5ft 6s 5s 11 13 mph 1021.3mb 61f 66f
7:50pm 5.5ft 9s 5s 13 16 mph 1021.7mb 61f 66f
6:50pm 5.5ft 6s 5s 13 18 mph 1021.4mb 61f 66f
5:50pm 5.5ft 6s 5s 18 20 mph 1020.8mb 61f 66f
4:50pm 5ft 6s 5s 16 18 mph 1021.1mb 61f 65f
3:50pm 5ft 7s 5s 13 16 mph 1021.8mb 61f 64f
2:50pm 5ft 6s 5s 13 16 mph 1022.8mb 61f 64f
1:50pm 5ft 6s 5s 16 18 mph 1023.4mb 60f 63f
12:50pm 5ft 7s 5s 16 18 mph 1024.9mb 60f 62f
11:50am 5.5ft 7s 5s 16 18 mph 1025.6mb 60f 62f
10:50am 6ft 6s 5s 16 20 mph 1026.3mb 60f 62f
9:50am 5.5ft 6s 5s 18 20 mph 1026.8mb 61f 62f
8:50am 5ft 7s 5s 16 20 mph 1026.7mb 61f 61f
7:50am 6ft 6s 5s 16 18 mph 1026.4mb 61f 61f
6:50am 6ft 6s 5s 20 22 mph 1025.9mb 61f 58f
5:50am 6ft 6s 5s 22 27 mph 1025mb 61f 58f
4:50am 6ft 7s 5s 22 27 mph 1024.6mb 61f 58f
3:50am 6ft 6s 5s 22 27 mph 1024.6mb 61f 58f
2:50am 6ft 7s 5s 22 25 mph 1025.2mb 61f 58f
1:50am 5.5ft 6s 5s 22 27 mph 1025mb 61f 58f
12:50am 5ft 6s 5s 22 27 mph 1025.7mb 62f 58f
Mon 03/02 11:50pm 4.5ft 5s 5s 20 25 mph 1026.1mb 62f 57f
10:50pm 4ft 4s 4s 18 20 mph 1027mb 62f 57f
9:50pm 3.5ft 8s 4s 18 22 mph 1026.5mb 62f 57f
8:50pm 3ft 8s 5s 20 25 mph 1025.8mb 62f 58f
7:50pm 2.5ft 9s 5s 16 20 mph 1025.3mb 62f 58f
6:50pm 2.5ft 9s 5s 13 16 mph 1024.9mb 62f 58f
5:50pm 3ft 8s 5s 13 16 mph 1024mb 62f 56f
4:50pm 3.5ft 9s 5s 13 16 mph 1024.1mb 62f 55f
3:50pm 3.5ft 9s 5s 9 11 mph 1023.5mb 62f 55f
2:50pm 3.5ft 8s 5s 9 11 mph 1023.4mb 62f 54f
1:50pm 4ft 7s 5s 11 16 mph 1023.7mb 62f 53f
12:50pm 4.5ft 9s 5s 16 20 mph 1024.4mb 61f 57f
11:50am 4.5ft 9s 5s 18 20 mph 1024.6mb 61f 56f
10:50am 4.5ft 8s 5s 18 22 mph 1024.9mb 61f 55f
9:50am 4.5ft 8s 5s 16 18 mph 1025.1mb 61f 57f
8:50am 4ft 8s 5s 16 18 mph 1024.9mb 62f 57f
7:50am 4ft 8s 5s 18 20 mph 1024.8mb 62f 57f
6:50am 4.5ft 8s 6s 13 16 mph 1024.5mb 62f 57f
5:50am 4.5ft 8s 6s 18 20 mph 1024.3mb 62f 58f
4:50am 4.5ft 8s 6s 13
mph
1023.8mb 62f 59f
3:50am 4.5ft 7s 6s 7 9 mph 1024.8mb 62f 55f
2:50am 4.5ft 8s 6s 7 9 mph 1025.9mb 62f 53f
1:50am 5ft 8s 6s 4 7 mph 1026.4mb 62f 53f
12:50am 5ft 7s 6s 7 9 mph 1027mb 62f 53f
Sun 03/01 11:50pm 5ft 8s 6s 4 7 mph 1027.8mb 62f 53f
10:50pm 5ft 7s 5s 4 7 mph 1028mb 62f 53f
9:50pm 5ft 8s 6s 13 16 mph 1028.4mb 62f 52f
8:50pm 6ft 6s 6s 11 13 mph 1028.4mb 62f 54f
7:50pm 6.5ft 7s 6s 11 16 mph 1028.3mb 62f 57f
6:50pm 6ft 6s 5s 13 16 mph 1027.4mb 62f 66f
5:50pm 6ft 8s 6s 16 18 mph 1027.5mb 62f 66f
4:50pm 6.5ft 8s 6s 13 16 mph 1027.9mb 62f 66f
3:50pm 6ft 6s 5s 13 18 mph 1028.1mb 62f 66f
2:50pm 6ft 6s 5s 18 20 mph 1028.6mb 61f 66f
1:50pm 6.5ft 6s 5s 18 20 mph 1028.9mb 61f 66f
12:50pm 6ft 6s 5s 13 18 mph 1030.5mb 61f 65f